createdAt,value
2023-02-11T00:00:28.572Z,-0.70
2023-02-11T00:02:58.794Z,-0.72
2023-02-11T00:05:31.515Z,-0.72
2023-02-11T00:08:01.553Z,-0.74
2023-02-11T00:10:31.696Z,-0.77
2023-02-11T00:13:01.846Z,-0.78
2023-02-11T00:15:31.995Z,-0.83
2023-02-11T00:18:02.011Z,-0.85
2023-02-11T00:20:34.653Z,-0.87
2023-02-11T00:23:04.661Z,-0.86
2023-02-11T00:25:34.805Z,-0.89
2023-02-11T00:28:04.932Z,-0.90
2023-02-11T00:30:35.460Z,-0.90
2023-02-11T00:33:05.701Z,-0.94
2023-02-11T00:35:40.470Z,-1.00
2023-02-11T00:38:11.238Z,-0.93
2023-02-11T00:40:41.268Z,-0.98
2023-02-11T00:43:11.358Z,-0.97
2023-02-11T00:45:41.414Z,-0.96
2023-02-11T00:48:11.466Z,-0.96
2023-02-11T00:50:44.137Z,-0.97
2023-02-11T00:53:14.388Z,-0.95
2023-02-11T00:55:44.503Z,-0.92
2023-02-11T00:58:14.681Z,-0.94
2023-02-11T01:00:45.775Z,-0.93
2023-02-11T01:03:17.095Z,-0.96
2023-02-11T01:05:50.080Z,-0.98
2023-02-11T01:08:20.436Z,-1.24
2023-02-11T01:10:58.002Z,-1.35
2023-02-11T01:13:29.026Z,-1.02
2023-02-11T01:16:00.124Z,-1.08
2023-02-11T01:18:30.524Z,-1.12
2023-02-11T01:21:03.204Z,-1.14
2023-02-11T01:23:33.408Z,-1.17
2023-02-11T01:26:03.484Z,-1.17
2023-02-11T01:28:34.790Z,-1.19
2023-02-11T01:31:06.329Z,-1.25
2023-02-11T01:33:36.423Z,-1.31
2023-02-11T01:36:12.281Z,-1.46
2023-02-11T01:38:44.611Z,-1.25
2023-02-11T01:41:17.569Z,-1.23
2023-02-11T01:43:50.206Z,-1.26
2023-02-11T01:46:36.619Z,-1.29
2023-02-11T01:49:10.418Z,-1.29
2023-02-11T01:51:46.970Z,-1.32
2023-02-11T01:54:35.785Z,-1.30
2023-02-11T01:57:20.164Z,-1.32
2023-02-11T01:59:57.535Z,-1.31
2023-02-11T02:02:33.742Z,-1.32
2023-02-11T02:05:09.989Z,-1.29
2023-02-11T02:07:50.230Z,-1.30
2023-02-11T02:10:25.816Z,-1.33
2023-02-11T02:12:56.022Z,-1.37
2023-02-11T02:15:35.424Z,-1.44
2023-02-11T02:18:24.322Z,-1.59
2023-02-11T02:21:27.469Z,-1.49
2023-02-11T02:24:34.616Z,-1.50
2023-02-11T02:27:26.976Z,-1.50
2023-02-11T02:30:38.019Z,-1.50
2023-02-11T02:33:25.086Z,-1.51
2023-02-11T02:36:07.390Z,-1.54
2023-02-11T02:38:41.498Z,-1.54
2023-02-11T02:41:14.122Z,-1.54
2023-02-11T02:43:46.845Z,-1.55
2023-02-11T02:46:20.012Z,-1.77
2023-02-11T02:48:54.454Z,-1.51
2023-02-11T02:51:42.473Z,-1.53
2023-02-11T02:54:31.911Z,-1.52
2023-02-11T02:57:13.018Z,-1.55
2023-02-11T02:59:53.562Z,-1.60
2023-02-11T03:02:29.954Z,-1.61
2023-02-11T03:05:09.218Z,-1.61
2023-02-11T03:07:44.765Z,-1.67
2023-02-11T03:10:19.995Z,-1.66
2023-02-11T03:12:52.532Z,-1.75
2023-02-11T03:15:24.567Z,-1.73
2023-02-11T03:17:57.525Z,-1.68
2023-02-11T03:20:33.008Z,-1.76
2023-02-11T03:23:09.230Z,-1.82
2023-02-11T03:25:46.986Z,-1.82
2023-02-11T03:28:22.053Z,-1.87
2023-02-11T03:30:58.232Z,-1.88
2023-02-11T03:33:32.015Z,-1.94
2023-02-11T03:36:12.204Z,-2.03
2023-02-11T03:38:49.000Z,-1.92
2023-02-11T03:41:24.331Z,-1.91
2023-02-11T03:43:59.389Z,-1.86
2023-02-11T03:46:34.346Z,-1.81
2023-02-11T03:49:08.191Z,-1.80
2023-02-11T03:51:42.320Z,-1.81
2023-02-11T03:54:17.311Z,-2.00
2023-02-11T03:56:52.827Z,-1.82
2023-02-11T03:59:23.241Z,-2.17
2023-02-11T04:01:53.536Z,-1.79
2023-02-11T04:04:23.863Z,-1.81
2023-02-11T04:06:56.579Z,-1.85
2023-02-11T04:09:26.632Z,-1.88
2023-02-11T04:11:56.716Z,-1.91
2023-02-11T04:14:26.713Z,-2.13
2023-02-11T04:16:56.772Z,-1.97
2023-02-11T04:19:26.918Z,-2.17
2023-02-11T04:21:59.758Z,-2.02
2023-02-11T04:24:29.957Z,-2.02
2023-02-11T04:27:00.000Z,-2.20
2023-02-11T04:29:30.318Z,-1.97
2023-02-11T04:32:00.492Z,-1.95
2023-02-11T04:34:30.719Z,-2.21
2023-02-11T04:37:03.455Z,-1.99
2023-02-11T04:39:33.533Z,-1.98
2023-02-11T04:42:03.787Z,-2.07
2023-02-11T04:44:34.243Z,-2.03
2023-02-11T04:47:04.411Z,-2.04
2023-02-11T04:49:34.531Z,-2.09
2023-02-11T04:52:07.172Z,-2.08
2023-02-11T04:54:37.490Z,-2.08
2023-02-11T04:57:07.640Z,-2.26
2023-02-11T04:59:37.687Z,-2.10
2023-02-11T05:02:08.148Z,-2.11
2023-02-11T05:04:38.201Z,-2.13
2023-02-11T05:07:10.992Z,-2.13
2023-02-11T05:09:41.089Z,-2.12
2023-02-11T05:12:11.259Z,-2.09
2023-02-11T05:14:41.338Z,-2.07
2023-02-11T05:17:11.575Z,-2.08
2023-02-11T05:19:41.651Z,-2.12
2023-02-11T05:22:14.993Z,-2.15
2023-02-11T05:24:45.026Z,-2.16
2023-02-11T05:27:15.197Z,-2.20
2023-02-11T05:29:45.303Z,-2.28
2023-02-11T05:32:15.365Z,-2.43
2023-02-11T05:34:45.590Z,-2.22
2023-02-11T05:37:18.310Z,-2.23
2023-02-11T05:39:48.444Z,-2.20
2023-02-11T05:42:18.558Z,-2.52
2023-02-11T05:44:50.535Z,-2.20
2023-02-11T05:47:20.839Z,-2.21
2023-02-11T05:49:50.935Z,-2.20
2023-02-11T05:52:23.956Z,-2.17
2023-02-11T05:54:54.555Z,-2.19
2023-02-11T05:57:24.673Z,-2.20
2023-02-11T05:59:54.787Z,-2.18
2023-02-11T06:02:24.895Z,-2.17
2023-02-11T06:04:55.012Z,-2.36
2023-02-11T06:07:27.637Z,-2.18
2023-02-11T06:09:57.765Z,-2.17
2023-02-11T06:12:27.958Z,-2.13
2023-02-11T06:14:58.025Z,-2.16
2023-02-11T06:17:29.280Z,-2.15
2023-02-11T06:20:08.739Z,-2.12
2023-02-11T06:22:44.331Z,-2.08
2023-02-11T06:25:19.373Z,-2.09
2023-02-11T06:27:51.706Z,-2.14
2023-02-11T06:30:25.792Z,-2.14
2023-02-11T06:33:05.831Z,-2.14
2023-02-11T06:35:36.883Z,-2.12
2023-02-11T06:38:10.784Z,-2.13
2023-02-11T06:40:42.512Z,-2.07
2023-02-11T06:43:12.876Z,-2.04
2023-02-11T06:45:50.159Z,-2.07
2023-02-11T06:48:20.280Z,-2.33
2023-02-11T06:51:02.626Z,-2.11
2023-02-11T06:53:44.381Z,-2.26
2023-02-11T06:56:18.187Z,-2.21
2023-02-11T06:58:58.589Z,-2.02
2023-02-11T07:01:30.494Z,-2.13
2023-02-11T07:04:01.797Z,-2.01
2023-02-11T07:06:32.545Z,-1.93
2023-02-11T07:09:20.406Z,-1.82
2023-02-11T07:11:51.809Z,-1.84
2023-02-11T07:14:24.525Z,-1.75
2023-02-11T07:16:56.401Z,-1.63
2023-02-11T07:19:26.475Z,-1.54
2023-02-11T07:21:56.572Z,-1.46
2023-02-11T07:24:34.241Z,-1.42
2023-02-11T07:27:07.855Z,-1.33
2023-02-11T07:29:43.157Z,-1.37
2023-02-11T07:32:15.915Z,-1.28
2023-02-11T07:34:46.088Z,-1.40
2023-02-11T07:37:16.539Z,-1.05
2023-02-11T07:39:57.494Z,-0.96
2023-02-11T07:42:29.313Z,-0.84
2023-02-11T07:44:59.591Z,-0.83
2023-02-11T07:47:29.722Z,-0.67
2023-02-11T07:50:02.988Z,-0.63
2023-02-11T07:52:33.558Z,-0.53
2023-02-11T07:55:11.259Z,-0.42
2023-02-11T07:57:42.913Z,-0.32
2023-02-11T08:00:23.833Z,-0.24
2023-02-11T08:02:55.027Z,-0.20
2023-02-11T08:05:25.053Z,-0.22
2023-02-11T08:07:55.665Z,-0.12
2023-02-11T08:10:28.649Z,-0.10
2023-02-11T08:12:59.147Z,-0.22
2023-02-11T08:15:29.334Z,-0.06
2023-02-11T08:17:59.357Z,0.05
2023-02-11T08:20:29.566Z,0.11
2023-02-11T08:22:59.688Z,0.05
2023-02-11T08:25:32.670Z,0.21
2023-02-11T08:28:02.950Z,0.22
2023-02-11T08:30:33.080Z,0.36
2023-02-11T08:33:03.416Z,0.41
2023-02-11T08:35:33.938Z,0.50
2023-02-11T08:38:06.515Z,0.60
2023-02-11T08:40:40.588Z,0.68
2023-02-11T08:43:13.671Z,0.75
2023-02-11T08:45:48.934Z,0.84
2023-02-11T08:48:21.799Z,0.84
2023-02-11T08:50:51.963Z,0.91
2023-02-11T08:53:22.178Z,0.98
2023-02-11T08:55:56.785Z,1.05
2023-02-11T08:58:26.970Z,1.11
2023-02-11T09:00:57.067Z,1.20
2023-02-11T09:03:27.342Z,1.22
2023-02-11T09:05:57.557Z,1.20
2023-02-11T09:08:27.706Z,1.25
2023-02-11T09:11:02.158Z,1.08
2023-02-11T09:13:32.515Z,1.41
2023-02-11T09:16:04.901Z,1.41
2023-02-11T09:18:35.632Z,1.45
2023-02-11T09:21:08.111Z,1.47
2023-02-11T09:23:43.931Z,1.59
2023-02-11T09:26:18.832Z,1.59
2023-02-11T09:28:49.494Z,1.64
2023-02-11T09:31:23.495Z,1.64
2023-02-11T09:33:56.163Z,1.69
2023-02-11T09:36:28.975Z,1.70
2023-02-11T09:39:02.115Z,1.81
2023-02-11T09:41:47.586Z,1.82
2023-02-11T09:44:23.066Z,1.89
2023-02-11T09:46:59.740Z,1.85
2023-02-11T09:49:38.567Z,2.08
2023-02-11T09:52:14.441Z,2.17
2023-02-11T09:54:52.642Z,2.25
2023-02-11T09:57:29.169Z,2.29
2023-02-11T10:00:00.892Z,2.27
2023-02-11T10:02:40.081Z,2.55
2023-02-11T10:05:30.918Z,2.60
2023-02-11T10:08:10.050Z,2.64
2023-02-11T10:10:54.205Z,2.73
2023-02-11T10:13:51.931Z,2.77
2023-02-11T10:16:33.083Z,2.86
2023-02-11T10:19:22.527Z,2.93
2023-02-11T10:22:02.815Z,2.99
2023-02-11T10:24:34.537Z,3.13
2023-02-11T10:27:11.908Z,3.09
2023-02-11T10:29:49.447Z,3.16
2023-02-11T10:32:30.901Z,3.14
2023-02-11T10:35:05.919Z,3.17
2023-02-11T10:37:36.360Z,3.27
2023-02-11T10:40:07.010Z,3.29
2023-02-11T10:42:39.138Z,3.36
2023-02-11T10:45:22.841Z,3.46
2023-02-11T10:47:52.989Z,3.52
2023-02-11T10:50:26.723Z,3.58
2023-02-11T10:53:14.904Z,3.66
2023-02-11T10:55:53.444Z,3.70
2023-02-11T10:58:29.629Z,3.75
2023-02-11T11:01:12.974Z,3.88
2023-02-11T11:03:52.584Z,3.86
2023-02-11T11:06:33.754Z,3.78
2023-02-11T11:09:04.818Z,3.92
2023-02-11T11:11:34.882Z,3.89
2023-02-11T11:14:05.972Z,4.05
2023-02-11T11:16:39.582Z,4.08
2023-02-11T11:19:28.375Z,4.23
2023-02-11T11:22:00.527Z,4.25
2023-02-11T11:24:35.353Z,4.28
2023-02-11T11:27:08.402Z,4.24
2023-02-11T11:29:41.601Z,4.20
2023-02-11T11:32:23.464Z,4.29
2023-02-11T11:34:55.866Z,4.31
2023-02-11T11:37:29.058Z,4.38
2023-02-11T11:40:02.117Z,4.30
2023-02-11T11:42:34.065Z,4.42
2023-02-11T11:45:06.670Z,4.42
2023-02-11T11:47:46.212Z,4.49
2023-02-11T11:50:29.735Z,4.62
2023-02-11T11:53:07.696Z,4.65
2023-02-11T11:55:42.941Z,4.62
2023-02-11T11:58:18.344Z,4.85
2023-02-11T12:01:00.905Z,4.91
2023-02-11T12:04:02.205Z,4.92
2023-02-11T12:06:39.229Z,4.98
2023-02-11T12:09:19.628Z,5.02
2023-02-11T12:12:04.631Z,5.02
2023-02-11T12:14:46.398Z,5.06
2023-02-11T12:17:25.560Z,5.12
2023-02-11T12:20:21.244Z,5.13
2023-02-11T12:23:02.904Z,5.18
2023-02-11T12:25:38.679Z,5.01
2023-02-11T12:28:25.519Z,5.18
2023-02-11T12:31:27.015Z,5.22
2023-02-11T12:34:17.553Z,5.27
2023-02-11T12:37:07.932Z,5.29
2023-02-11T12:39:46.208Z,5.29
2023-02-11T12:42:42.894Z,5.24
2023-02-11T12:45:24.932Z,5.38
2023-02-11T12:48:13.047Z,5.44
2023-02-11T12:50:56.939Z,5.51
2023-02-11T12:53:55.816Z,5.52
2023-02-11T12:56:33.727Z,5.59
2023-02-11T12:59:08.285Z,5.46
2023-02-11T13:01:43.023Z,5.54
2023-02-11T13:04:21.368Z,5.70
2023-02-11T13:06:55.156Z,5.76
2023-02-11T13:09:33.544Z,5.51
2023-02-11T13:12:29.198Z,5.87
2023-02-11T13:15:05.020Z,5.87
2023-02-11T13:17:43.782Z,5.81
2023-02-11T13:20:24.702Z,6.02
2023-02-11T13:23:03.025Z,6.03
2023-02-11T13:25:40.786Z,5.94
2023-02-11T13:28:25.759Z,5.93
2023-02-11T13:31:02.733Z,6.05
2023-02-11T13:33:39.921Z,6.10
2023-02-11T13:36:20.929Z,6.12
2023-02-11T13:38:58.931Z,6.08
2023-02-11T13:41:38.245Z,6.14
2023-02-11T13:44:27.541Z,6.28
2023-02-11T13:47:01.964Z,6.37
2023-02-11T13:49:41.061Z,6.54
2023-02-11T13:52:25.029Z,6.62
2023-02-11T13:54:57.801Z,6.72
2023-02-11T13:58:11.036Z,6.85
2023-02-11T14:00:52.044Z,7.01
2023-02-11T14:03:48.022Z,7.09
2023-02-11T14:06:37.364Z,6.90
2023-02-11T14:09:38.793Z,6.82
2023-02-11T14:12:38.555Z,6.81
2023-02-11T14:15:28.214Z,6.98
2023-02-11T14:17:58.392Z,8.50
2023-02-11T14:20:42.147Z,9.93
2023-02-11T14:23:27.391Z,11.15
2023-02-11T14:26:11.889Z,12.05
2023-02-11T14:28:46.934Z,12.47
2023-02-11T14:31:24.165Z,12.02
2023-02-11T14:34:24.543Z,11.50
2023-02-11T14:37:06.311Z,10.82
2023-02-11T14:39:54.225Z,9.96
2023-02-11T14:42:27.824Z,9.51
2023-02-11T14:45:01.134Z,8.72
2023-02-11T14:47:43.522Z,8.65
2023-02-11T14:50:22.279Z,8.20
2023-02-11T14:52:53.257Z,7.91
2023-02-11T14:55:29.953Z,7.63
2023-02-11T14:58:17.494Z,7.29
2023-02-11T15:00:53.062Z,7.12
2023-02-11T15:03:38.245Z,6.77
2023-02-11T15:06:15.630Z,6.80
2023-02-11T15:08:48.556Z,6.72
2023-02-11T15:11:22.713Z,6.59
2023-02-11T15:13:55.520Z,6.47
2023-02-11T15:16:27.916Z,6.36
2023-02-11T15:19:05.156Z,6.09
2023-02-11T15:21:37.755Z,6.18
2023-02-11T15:24:24.479Z,6.11
2023-02-11T15:27:05.592Z,5.96
2023-02-11T15:29:41.074Z,5.97
2023-02-11T15:32:18.080Z,5.91
2023-02-11T15:34:53.017Z,5.84
2023-02-11T15:37:25.695Z,5.78
2023-02-11T15:39:56.750Z,5.80
2023-02-11T15:42:28.203Z,5.78
2023-02-11T15:45:29.236Z,5.70
2023-02-11T15:48:03.055Z,5.62
2023-02-11T15:50:40.860Z,5.62
2023-02-11T15:53:25.991Z,5.57
2023-02-11T15:56:00.376Z,5.46
2023-02-11T15:58:30.567Z,5.43
2023-02-11T16:01:00.809Z,5.39
2023-02-11T16:03:33.186Z,5.35
2023-02-11T16:06:21.621Z,5.29
2023-02-11T16:09:03.030Z,5.06
2023-02-11T16:11:34.977Z,5.08
2023-02-11T16:14:22.362Z,5.09
2023-02-11T16:16:55.220Z,5.02
2023-02-11T16:19:27.768Z,4.99
2023-02-11T16:22:03.378Z,4.92
2023-02-11T16:24:36.297Z,4.94
2023-02-11T16:27:09.615Z,4.90
2023-02-11T16:29:43.758Z,4.92
2023-02-11T16:32:22.631Z,4.90
2023-02-11T16:34:53.770Z,4.87
2023-02-11T16:37:27.070Z,4.86
2023-02-11T16:39:58.344Z,4.82
2023-02-11T16:42:28.403Z,4.81
2023-02-11T16:44:59.977Z,4.78
2023-02-11T16:47:32.680Z,4.73
2023-02-11T16:50:04.628Z,4.71
2023-02-11T16:52:38.795Z,4.63
2023-02-11T16:55:09.531Z,4.48
2023-02-11T16:57:39.651Z,4.64
2023-02-11T17:00:11.552Z,4.61
2023-02-11T17:02:42.357Z,4.27
2023-02-11T17:05:23.115Z,4.55
2023-02-11T17:07:55.852Z,4.50
2023-02-11T17:10:26.854Z,4.48
2023-02-11T17:12:56.587Z,4.44
2023-02-11T17:15:26.619Z,4.35
2023-02-11T17:17:56.730Z,4.34
2023-02-11T17:20:27.197Z,4.32
2023-02-11T17:23:00.745Z,4.24
2023-02-11T17:25:31.362Z,4.17
2023-02-11T17:28:01.485Z,4.18
2023-02-11T17:30:31.611Z,4.11
2023-02-11T17:33:01.746Z,4.11
2023-02-11T17:35:31.886Z,4.02
2023-02-11T17:38:04.642Z,4.01
2023-02-11T17:40:34.646Z,3.97
2023-02-11T17:43:04.728Z,3.92
2023-02-11T17:45:34.757Z,3.89
2023-02-11T17:48:04.953Z,3.86
2023-02-11T17:50:38.679Z,3.82
2023-02-11T17:53:11.378Z,3.82
2023-02-11T17:55:41.559Z,3.75
2023-02-11T17:58:11.641Z,3.80
2023-02-11T18:00:41.744Z,3.75
2023-02-11T18:03:11.997Z,3.74
2023-02-11T18:05:42.320Z,3.71
2023-02-11T18:08:15.059Z,3.68
2023-02-11T18:10:45.736Z,3.66
2023-02-11T18:13:15.868Z,3.58
2023-02-11T18:15:46.098Z,3.62
2023-02-11T18:18:16.284Z,3.62
2023-02-11T18:20:47.932Z,3.58
2023-02-11T18:23:20.561Z,3.53
2023-02-11T18:25:50.971Z,3.50
2023-02-11T18:28:21.331Z,3.50
2023-02-11T18:30:51.493Z,3.48
2023-02-11T18:33:21.555Z,3.43
2023-02-11T18:35:51.983Z,3.43
2023-02-11T18:38:25.011Z,3.41
2023-02-11T18:40:55.097Z,3.41
2023-02-11T18:43:25.311Z,3.38
2023-02-11T18:45:55.631Z,3.35
2023-02-11T18:48:26.859Z,3.26
2023-02-11T18:50:58.304Z,3.30
2023-02-11T18:53:31.158Z,3.26
2023-02-11T18:56:01.737Z,3.22
2023-02-11T18:58:31.827Z,3.22
2023-02-11T19:01:02.194Z,3.21
2023-02-11T19:03:32.354Z,2.97
2023-02-11T19:06:02.428Z,3.21
2023-02-11T19:08:35.165Z,3.22
2023-02-11T19:11:07.987Z,3.25
2023-02-11T19:13:38.113Z,3.25
2023-02-11T19:16:11.471Z,3.25
2023-02-11T19:18:41.944Z,3.25
2023-02-11T19:21:13.259Z,3.20
2023-02-11T19:23:45.911Z,3.21
2023-02-11T19:26:15.954Z,3.25
2023-02-11T19:28:45.986Z,3.20
2023-02-11T19:31:16.875Z,3.18
2023-02-11T19:33:46.711Z,3.26
2023-02-11T19:36:18.747Z,3.07
2023-02-11T19:38:51.476Z,3.22
2023-02-11T19:41:23.241Z,3.23
2023-02-11T19:43:56.772Z,3.07
2023-02-11T19:46:28.049Z,3.23
2023-02-11T19:48:58.418Z,3.18
2023-02-11T19:51:28.663Z,3.21
2023-02-11T19:54:02.283Z,3.19
2023-02-11T19:56:32.544Z,3.17
2023-02-11T19:59:04.831Z,3.14
2023-02-11T20:01:34.946Z,3.13
2023-02-11T20:04:05.101Z,3.13
2023-02-11T20:06:36.801Z,3.11
2023-02-11T20:09:11.742Z,3.10
2023-02-11T20:11:42.775Z,3.10
2023-02-11T20:14:14.919Z,3.07
2023-02-11T20:16:49.831Z,3.03
2023-02-11T20:19:22.745Z,3.05
2023-02-11T20:21:58.260Z,3.07
2023-02-11T20:24:31.005Z,3.05
2023-02-11T20:27:01.064Z,3.05
2023-02-11T20:29:31.981Z,3.04
2023-02-11T20:32:03.231Z,3.03
2023-02-11T20:34:33.036Z,3.02
2023-02-11T20:37:04.255Z,2.91
2023-02-11T20:39:41.025Z,3.00
2023-02-11T20:42:12.614Z,3.01
2023-02-11T20:44:42.666Z,3.03
2023-02-11T20:47:12.791Z,3.01
2023-02-11T20:49:42.887Z,3.01
2023-02-11T20:52:13.024Z,3.02
2023-02-11T20:54:45.930Z,3.02
2023-02-11T20:57:16.038Z,2.99
2023-02-11T20:59:46.110Z,3.04
2023-02-11T21:02:16.212Z,3.05
2023-02-11T21:04:46.239Z,3.06
2023-02-11T21:07:16.341Z,3.08
2023-02-11T21:09:49.085Z,3.08
2023-02-11T21:12:19.168Z,2.99
2023-02-11T21:14:49.368Z,3.11
2023-02-11T21:17:19.488Z,3.15
2023-02-11T21:19:49.632Z,3.18
2023-02-11T21:22:19.666Z,3.20
2023-02-11T21:24:52.567Z,3.18
2023-02-11T21:27:23.522Z,3.25
2023-02-11T21:29:54.785Z,3.24
2023-02-11T21:32:24.989Z,3.22
2023-02-11T21:34:55.225Z,3.24
2023-02-11T21:37:26.543Z,3.23
2023-02-11T21:39:59.196Z,3.19
2023-02-11T21:42:29.196Z,3.08
2023-02-11T21:44:59.645Z,3.03
2023-02-11T21:47:29.930Z,2.98
2023-02-11T21:49:59.980Z,2.96
2023-02-11T21:52:30.146Z,2.96
2023-02-11T21:55:03.535Z,2.97
2023-02-11T21:57:33.998Z,2.97
2023-02-11T22:00:04.269Z,2.92
2023-02-11T22:02:35.677Z,2.96
2023-02-11T22:05:06.888Z,2.94
2023-02-11T22:07:38.653Z,2.93
2023-02-11T22:10:12.807Z,2.76
2023-02-11T22:12:43.110Z,3.00
2023-02-11T22:15:13.466Z,2.99
2023-02-11T22:17:43.827Z,3.05
2023-02-11T22:20:15.848Z,3.06
2023-02-11T22:22:45.937Z,3.01
2023-02-11T22:25:18.854Z,3.05
2023-02-11T22:27:48.916Z,2.90
2023-02-11T22:30:19.326Z,3.05
2023-02-11T22:32:49.451Z,3.06
2023-02-11T22:35:19.569Z,3.08
2023-02-11T22:37:49.662Z,3.09
2023-02-11T22:40:23.577Z,3.11
2023-02-11T22:42:53.646Z,3.11
2023-02-11T22:45:23.753Z,3.09
2023-02-11T22:47:54.363Z,3.12
2023-02-11T22:50:24.450Z,2.88
2023-02-11T22:52:54.623Z,3.10
2023-02-11T22:55:27.401Z,3.10
2023-02-11T22:57:57.690Z,2.92
2023-02-11T23:00:33.784Z,3.05
2023-02-11T23:03:03.970Z,3.01
2023-02-11T23:05:34.083Z,3.02
2023-02-11T23:08:04.091Z,2.99
2023-02-11T23:10:37.516Z,2.87
2023-02-11T23:13:10.493Z,2.80
2023-02-11T23:15:42.950Z,2.56
2023-02-11T23:18:14.436Z,2.57
2023-02-11T23:20:46.576Z,2.61
2023-02-11T23:23:16.585Z,2.61
2023-02-11T23:25:49.181Z,2.66
2023-02-11T23:28:19.337Z,2.62
2023-02-11T23:30:49.571Z,2.60
2023-02-11T23:33:19.677Z,2.62
2023-02-11T23:35:49.807Z,2.62
2023-02-11T23:38:19.894Z,2.61
2023-02-11T23:40:52.536Z,2.60
2023-02-11T23:43:24.378Z,2.62
2023-02-11T23:45:55.056Z,2.61
2023-02-11T23:48:25.287Z,2.64
2023-02-11T23:50:55.442Z,2.65
2023-02-11T23:53:25.494Z,2.63
2023-02-11T23:55:58.102Z,2.63
2023-02-11T23:58:28.240Z,2.60
